Time;durP1;ratioP1;P1;durP2;ratioP2;P2;SDS_P1;SDS_P2;PMS_P1;PMS_P2;Temp;Humidity;BMP_temperature;BMP_pressure;BME280_temperature;BME280_humidity;BME280_pressure;Samples;Min_cycle;Max_cycle;Signal;HPM_P1;HPM_P2
2022/12/14 00:01:45;;;;;;;45.42;27.30;;;-3274.50;86.10;;;;;;5035288;28;20060;-74
2022/12/14 00:04:13;;;;;;;39.78;24.30;;;-3274.50;86.20;;;;;;5032569;28;20038;-75
2022/12/14 00:06:41;;;;;;;38.20;24.20;;;-3274.50;86.20;;;;;;5037520;28;20544;-76
2022/12/14 00:09:09;;;;;;;44.65;25.70;;;-3274.50;86.30;;;;;;5039434;28;20144;-76
2022/12/14 00:11:34;;;;;;;41.80;25.50;;;-3274.50;86.00;;;;;;5036921;28;20155;-74
2022/12/14 00:14:02;;;;;;;40.78;25.27;;;-3274.50;86.10;;;;;;5035273;28;20029;-75
2022/12/14 00:16:31;;;;;;;41.22;24.33;;;-3274.50;86.00;;;;;;5035983;28;20041;-74
2022/12/14 00:18:59;;;;;;;46.70;27.38;;;-3274.50;86.00;;;;;;5029922;28;20026;-75
2022/12/14 00:21:28;;;;;;;43.45;27.40;;;-3274.50;86.00;;;;;;5040127;28;20039;-75
2022/12/14 00:23:57;;;;;;;46.53;26.23;;;-3274.50;86.00;;;;;;5035773;28;20186;-74
2022/12/14 00:26:27;;;;;;;43.00;25.67;;;-3274.50;86.00;;;;;;5033841;28;20120;-74
2022/12/14 00:28:56;;;;;;;40.65;26.20;;;-3274.50;86.00;;;;;;5035297;28;20033;-78
2022/12/14 00:31:23;;;;;;;42.55;25.83;;;-3274.50;85.90;;;;;;5030298;28;20025;-74
2022/12/14 00:33:51;;;;;;;39.95;25.58;;;-3274.50;85.90;;;;;;5032091;28;20033;-74
2022/12/14 00:36:18;;;;;;;46.00;25.80;;;-3274.50;85.80;;;;;;5028580;28;20056;-77
2022/12/14 00:38:46;;;;;;;41.92;25.45;;;-3274.50;85.80;;;;;;5040337;28;20064;-75
2022/12/14 00:41:12;;;;;;;44.53;28.90;;;-3274.50;85.70;;;;;;5034929;28;20035;-79
2022/12/14 00:43:43;;;;;;;38.90;24.55;;;-3274.40;85.70;;;;;;5038849;28;20044;-77
2022/12/14 00:46:08;;;;;;;46.42;26.30;;;-3274.40;85.70;;;;;;5031560;28;20694;-75
2022/12/14 00:48:34;;;;;;;44.40;27.10;;;-3274.40;85.70;;;;;;5035708;28;20066;-76
2022/12/14 00:51:08;;;;;;;44.75;26.70;;;-3274.40;85.60;;;;;;5030093;28;20033;-77
2022/12/14 00:53:36;;;;;;;41.63;26.77;;;-3274.40;85.50;;;;;;5030783;28;20045;-75
2022/12/14 00:56:09;;;;;;;43.92;25.52;;;-3274.40;85.50;;;;;;5037342;28;20036;-74
2022/12/14 00:58:35;;;;;;;43.78;25.50;;;-3274.30;85.60;;;;;;5029794;28;20152;-78
2022/12/14 01:01:05;;;;;;;41.80;25.33;;;-3274.40;85.40;;;;;;5030109;28;20807;-74
2022/12/14 01:03:32;;;;;;;40.80;24.45;;;-3274.40;85.30;;;;;;5030202;28;20025;-74
2022/12/14 01:06:00;;;;;;;46.15;27.38;;;-3274.30;85.40;;;;;;5027043;28;20124;-78
2022/12/14 01:08:33;;;;;;;47.38;27.70;;;-3274.30;85.60;;;;;;5026268;28;20465;-75
2022/12/14 01:11:07;;;;;;;44.45;26.42;;;-3274.20;85.80;;;;;;5042253;28;20037;-75
2022/12/14 01:13:34;;;;;;;44.30;26.50;;;-3274.10;85.90;;;;;;5037180;28;20040;-74
2022/12/14 01:16:16;;;;;;;42.95;26.88;;;-3274.10;86.10;;;;;;5026966;28;20110;-75
2022/12/14 01:18:45;;;;;;;45.00;25.90;;;-3274.10;86.20;;;;;;5039989;28;20108;-74
2022/12/14 01:21:30;;;;;;;42.63;26.92;;;-3274.10;86.10;;;;;;5029069;28;20049;-77
2022/12/14 01:24:00;;;;;;;45.90;26.90;;;-3274.20;86.20;;;;;;5031989;28;20103;-75
2022/12/14 01:26:29;;;;;;;40.40;25.52;;;-3274.20;86.20;;;;;;5032835;28;20095;-79
2022/12/14 01:28:58;;;;;;;38.40;24.75;;;-3274.20;86.20;;;;;;5039253;28;20124;-74
2022/12/14 01:31:27;;;;;;;41.17;25.10;;;-3274.30;86.20;;;;;;5035799;28;20033;-74
2022/12/14 01:33:53;;;;;;;41.78;26.30;;;-3274.30;86.20;;;;;;5034339;28;20083;-75
2022/12/14 01:36:29;;;;;;;42.80;25.42;;;-3274.30;86.20;;;;;;5035063;28;20044;-76
2022/12/14 01:39:08;;;;;;;;;;;;;;;;;;;;;
2022/12/14 01:41:40;;;;;;;38.67;24.95;;;-3274.30;86.20;;;;;;5035974;28;20600;-76
2022/12/14 01:44:25;;;;;;;39.90;24.75;;;-3274.40;86.30;;;;;;5033209;28;20022;-78
2022/12/14 01:47:04;;;;;;;42.63;25.85;;;-3274.40;86.20;;;;;;5029988;28;20044;-74
2022/12/14 01:49:30;;;;;;;39.55;25.52;;;-3274.40;86.00;;;;;;5037903;28;20044;-75
2022/12/14 01:52:34;;;;;;;41.67;24.63;;;-3274.50;85.90;;;;;;5029726;28;20041;-74
2022/12/14 01:55:24;;;;;;;38.85;25.45;;;-3274.50;85.80;;;;;;5032196;28;20390;-74
2022/12/14 01:58:23;;;;;;;41.70;25.63;;;-3274.50;85.60;;;;;;5017880;28;20619;-74
2022/12/14 02:00:53;;;;;;;40.40;25.33;;;-3274.50;85.40;;;;;;5034288;28;20038;-75
2022/12/14 02:03:27;;;;;;;40.78;24.58;;;-3274.50;85.40;;;;;;5032260;28;20036;-76
2022/12/14 02:06:07;;;;;;;45.40;26.00;;;-3274.50;85.50;;;;;;5030537;28;20067;-77
2022/12/14 02:08:37;;;;;;;38.88;25.02;;;-3274.50;85.40;;;;;;5037940;28;20457;-76
2022/12/14 02:11:06;;;;;;;45.35;25.17;;;-3274.50;85.40;;;;;;5032495;28;20126;-77
2022/12/14 02:13:35;;;;;;;42.47;25.50;;;-3274.50;85.50;;;;;;5035605;28;20462;-74
2022/12/14 02:16:01;;;;;;;40.95;24.52;;;-3274.50;85.40;;;;;;5034373;28;20045;-76
2022/12/14 02:18:29;;;;;;;39.90;23.92;;;-3274.50;85.10;;;;;;5031530;28;20133;-76
2022/12/14 02:21:22;;;;;;;41.20;25.90;;;-3274.50;85.10;;;;;;5046823;28;20060;-78
2022/12/14 02:24:15;;;;;;;46.13;26.30;;;-3274.50;85.10;;;;;;5049917;28;20053;-78
2022/12/14 02:27:08;;;;;;;42.05;25.38;;;-3274.50;85.10;;;;;;5036660;28;20401;-74
2022/12/14 02:29:52;;;;;;;44.70;25.92;;;-3274.50;85.10;;;;;;5023561;28;20037;-76
2022/12/14 02:32:37;;;;;;;44.70;26.45;;;-3274.50;85.10;;;;;;5028098;28;20304;-75
2022/12/14 02:35:31;;;;;;;48.03;26.83;;;-3274.40;85.20;;;;;;5032804;28;20412;-75
2022/12/14 02:38:26;;;;;;;46.63;25.20;;;-3274.30;85.30;;;;;;5023112;28;20112;-78
2022/12/14 02:41:16;;;;;;;40.47;25.02;;;-3274.30;85.50;;;;;;5016736;28;20042;-74
2022/12/14 02:44:00;;;;;;;47.38;26.05;;;-3274.30;85.60;;;;;;5026784;28;20470;-76
2022/12/14 02:46:43;;;;;;;44.20;25.40;;;-3274.30;85.60;;;;;;5031367;28;20090;-77
2022/12/14 02:49:35;;;;;;;46.60;27.10;;;-3274.30;85.60;;;;;;5031107;28;20041;-74
2022/12/14 02:52:27;;;;;;;43.13;25.65;;;-3274.20;85.70;;;;;;5031945;28;20037;-74
2022/12/14 02:55:07;;;;;;;44.97;25.88;;;-3274.20;85.80;;;;;;5033086;28;20068;-75
2022/12/14 02:58:01;;;;;;;45.13;27.05;;;-3274.20;85.80;;;;;;5028308;28;20033;-79
2022/12/14 03:00:31;;;;;;;42.08;25.50;;;-3274.20;85.80;;;;;;5024822;28;20045;-78
2022/12/14 03:03:05;;;;;;;42.22;25.90;;;-3274.20;85.70;;;;;;5021915;28;20038;-77
2022/12/14 03:05:34;;;;;;;43.95;25.75;;;-3274.20;85.70;;;;;;5030624;28;20269;-75
2022/12/14 03:08:16;;;;;;;44.80;26.27;;;-3274.20;85.70;;;;;;5035290;28;20045;-75
2022/12/14 03:10:58;;;;;;;44.97;27.50;;;-3274.30;85.70;;;;;;5052944;28;20841;-75
2022/12/14 03:13:30;;;;;;;41.70;25.35;;;-3274.20;85.70;;;;;;5030466;28;20029;-75
2022/12/14 03:16:12;;;;;;;43.22;25.23;;;-3274.20;85.80;;;;;;5030575;28;20036;-75
2022/12/14 03:18:45;;;;;;;44.88;27.00;;;-3274.10;85.80;;;;;;5030873;28;20049;-77
2022/12/14 03:21:17;;;;;;;43.67;24.20;;;-3274.10;86.00;;;;;;5031072;28;20036;-75
2022/12/14 03:23:47;;;;;;;46.83;27.02;;;-3274.20;86.10;;;;;;5037813;28;20482;-75
2022/12/14 03:26:25;;;;;;;47.88;27.38;;;-3274.10;86.10;;;;;;5031714;28;20454;-76
2022/12/14 03:28:59;;;;;;;41.47;24.60;;;-3274.20;86.10;;;;;;5036794;28;20064;-75
2022/12/14 03:31:35;;;;;;;43.72;26.35;;;-3274.20;86.00;;;;;;5027095;28;20531;-76
2022/12/14 03:34:08;;;;;;;44.13;25.70;;;-3274.30;86.10;;;;;;5032261;28;20041;-76
2022/12/14 03:36:42;;;;;;;43.70;25.05;;;-3274.20;86.10;;;;;;5033182;28;20033;-75
2022/12/14 03:39:12;;;;;;;41.97;25.10;;;-3274.30;86.10;;;;;;5033738;28;20368;-74
2022/12/14 03:41:56;;;;;;;43.90;25.67;;;-3274.30;86.10;;;;;;5036630;28;20048;-76
2022/12/14 03:44:34;;;;;;;42.60;25.27;;;-3274.30;86.10;;;;;;5030801;28;20049;-75
2022/12/14 03:47:12;;;;;;;46.63;26.27;;;-3274.40;86.20;;;;;;5036121;28;20466;-76
2022/12/14 03:49:49;;;;;;;40.67;24.55;;;-3274.30;86.10;;;;;;5038297;28;20509;-74
2022/12/14 03:52:36;;;;;;;43.63;25.35;;;-3274.40;86.00;;;;;;5026990;28;20653;-75
2022/12/14 03:55:29;;;;;;;39.17;24.70;;;-3274.40;86.00;;;;;;5041257;28;20032;-74
2022/12/14 03:58:06;;;;;;;42.80;26.00;;;-3274.40;86.00;;;;;;5031151;28;20084;-75
2022/12/14 04:00:44;;;;;;;40.53;25.60;;;-3274.40;85.90;;;;;;5036273;28;20048;-75
2022/12/14 04:03:27;;;;;;;41.00;24.73;;;-3274.40;85.70;;;;;;5031679;28;20040;-76
2022/12/14 04:06:19;;;;;;;43.00;24.92;;;-3274.40;85.80;;;;;;5033176;28;20048;-76
2022/12/14 04:08:54;;;;;;;43.42;25.35;;;-3274.30;85.80;;;;;;5035248;28;20175;-76
2022/12/14 04:20:20;;;;;;;45.30;27.00;;;-3274.20;86.30;;;;;;5034085;28;20055;-75
2022/12/14 04:22:55;;;;;;;46.50;27.25;;;-3274.20;86.40;;;;;;5032347;28;20455;-74
2022/12/14 04:29:55;;;;;;;42.20;25.40;;;-3274.20;86.60;;;;;;5033460;28;20544;-74
2022/12/14 04:31:15;;;;;;;42.30;25.83;;;-3274.30;86.70;;;;;;5029068;28;20139;-74
2022/12/14 04:33:49;;;;;;;44.15;24.92;;;-3274.30;86.70;;;;;;5030096;28;20037;-75
2022/12/14 04:36:19;;;;;;;44.00;25.80;;;-3274.40;86.70;;;;;;5033430;28;20041;-75
2022/12/14 04:38:49;;;;;;;44.63;26.15;;;-3274.40;86.60;;;;;;5032954;28;20042;-77
2022/12/14 04:41:22;;;;;;;40.80;24.40;;;-3274.40;86.40;;;;;;5033818;28;20033;-77
2022/12/14 04:43:52;;;;;;;41.35;25.27;;;-3274.40;86.30;;;;;;5031969;28;20045;-76
2022/12/14 04:46:26;;;;;;;42.25;24.35;;;-3274.40;86.30;;;;;;5032587;28;20471;-73
2022/12/14 04:49:15;;;;;;;44.33;25.25;;;-3274.40;86.20;;;;;;5032651;28;20053;-75
2022/12/14 04:52:03;;;;;;;45.58;27.25;;;-3274.40;86.10;;;;;;5033140;28;20045;-74
2022/12/14 04:54:45;;;;;;;44.03;24.75;;;-3274.40;86.00;;;;;;5027422;28;20048;-74
2022/12/14 04:57:29;;;;;;;41.28;24.38;;;-3274.40;86.20;;;;;;5033325;28;20032;-77
2022/12/14 04:59:56;;;;;;;40.92;25.35;;;-3274.50;86.30;;;;;;5036187;28;20037;-74
2022/12/14 05:02:28;;;;;;;43.05;25.75;;;-3274.60;86.30;;;;;;5028208;28;20037;-74
2022/12/14 05:05:09;;;;;;;39.15;24.63;;;-3274.60;86.30;;;;;;5032563;28;20029;-73
2022/12/14 05:08:02;;;;;;;43.30;26.48;;;-3274.60;86.30;;;;;;5024507;28;20033;-74
2022/12/14 05:10:36;;;;;;;45.28;28.10;;;-3274.70;86.30;;;;;;5025939;28;20045;-76
2022/12/14 05:13:07;;;;;;;48.55;30.08;;;-3274.70;86.40;;;;;;5031157;28;20117;-75
2022/12/14 05:15:39;;;;;;;46.40;27.95;;;-3274.70;86.30;;;;;;5029657;28;20458;-77
2022/12/14 05:18:05;;;;;;;44.50;27.08;;;-3274.70;86.20;;;;;;5033257;28;20021;-75
2022/12/14 05:20:31;;;;;;;40.63;26.27;;;-3274.60;85.70;;;;;;5027639;28;20087;-76
2022/12/14 05:23:02;;;;;;;40.30;25.13;;;-3274.60;85.60;;;;;;5028909;28;20057;-78
2022/12/14 05:25:35;;;;;;;42.78;24.52;;;-3274.70;85.60;;;;;;5032444;28;20048;-75
2022/12/14 05:28:08;;;;;;;39.10;24.52;;;-3274.70;85.50;;;;;;5033306;28;20117;-74
2022/12/14 05:30:34;;;;;;;39.25;23.83;;;-3274.70;85.50;;;;;;5029566;28;20041;-74
2022/12/14 05:32:59;;;;;;;47.30;25.67;;;-3274.60;85.30;;;;;;5024896;28;20090;-76
2022/12/14 05:35:25;;;;;;;38.25;25.08;;;-3274.60;85.40;;;;;;5031656;28;20053;-75
2022/12/14 05:37:53;;;;;;;42.40;25.45;;;-3274.60;85.50;;;;;;5035801;28;20031;-75
2022/12/14 05:40:21;;;;;;;39.63;23.90;;;-3274.60;85.50;;;;;;5032704;28;20029;-78
2022/12/14 05:42:46;;;;;;;45.13;27.77;;;-3274.60;85.50;;;;;;5035863;28;20544;-75
2022/12/14 05:45:13;;;;;;;43.47;26.75;;;-3274.60;85.70;;;;;;5027829;28;20038;-74
2022/12/14 05:47:39;;;;;;;45.92;26.45;;;-3274.60;85.70;;;;;;5030033;28;20484;-77
2022/12/14 05:50:08;;;;;;;43.50;25.27;;;-3274.70;85.60;;;;;;5030589;28;20041;-74
2022/12/14 05:52:34;;;;;;;46.17;26.45;;;-3274.60;85.40;;;;;;5028362;28;20037;-76
2022/12/14 05:55:02;;;;;;;44.05;26.73;;;-3274.60;85.50;;;;;;5028465;28;20743;-78
2022/12/14 05:57:27;;;;;;;41.55;25.52;;;-3274.60;85.60;;;;;;5032257;28;20361;-75
2022/12/14 05:59:53;;;;;;;38.72;24.90;;;-3274.70;85.60;;;;;;5035752;28;20355;-74
2022/12/14 06:02:21;;;;;;;43.33;23.98;;;-3274.70;85.60;;;;;;5026078;28;20037;-76
2022/12/14 06:04:47;;;;;;;39.30;24.48;;;-3274.70;85.50;;;;;;5032935;28;20029;-74
2022/12/14 06:07:19;;;;;;;40.70;23.77;;;-3274.70;85.50;;;;;;5023469;28;20033;-75
2022/12/14 06:09:45;;;;;;;37.35;25.58;;;-3274.60;85.50;;;;;;5027497;28;20033;-79
2022/12/14 06:12:13;;;;;;;39.58;25.02;;;-3274.60;85.60;;;;;;5027664;28;20504;-75
2022/12/14 06:14:38;;;;;;;40.72;24.83;;;-3274.70;85.50;;;;;;5025106;28;20037;-75
2022/12/14 06:17:08;;;;;;;41.40;23.52;;;-3274.60;85.60;;;;;;5020060;28;20052;-77
2022/12/14 06:19:36;;;;;;;38.00;24.58;;;-3274.60;85.60;;;;;;5026550;28;20033;-76
2022/12/14 06:22:05;;;;;;;42.70;26.10;;;-3274.50;85.60;;;;;;5030331;28;20037;-74
2022/12/14 06:24:33;;;;;;;42.67;24.98;;;-3274.60;85.70;;;;;;5030564;28;20041;-74
2022/12/14 06:26:58;;;;;;;39.83;25.05;;;-3274.50;85.60;;;;;;5027321;28;20116;-74
2022/12/14 06:29:34;;;;;;;;;;;;;;;;;;;;;
2022/12/14 06:32:03;;;;;;;41.65;25.70;;;-3274.50;85.70;;;;;;5025794;28;20041;-74
2022/12/14 06:34:30;;;;;;;41.83;25.35;;;-3274.60;85.80;;;;;;5033405;28;20045;-74
2022/12/14 06:36:56;;;;;;;43.60;26.80;;;-3274.60;85.60;;;;;;5033520;28;20037;-75
2022/12/14 06:39:22;;;;;;;48.70;27.42;;;-3274.60;85.70;;;;;;5036704;28;20033;-73
2022/12/14 06:41:58;;;;;;;38.30;25.60;;;-3274.60;85.70;;;;;;5033062;28;20036;-77
2022/12/14 06:44:26;;;;;;;42.97;25.30;;;-3274.60;85.60;;;;;;5028010;28;20317;-77
2022/12/14 06:46:54;;;;;;;39.08;26.00;;;-3274.60;85.80;;;;;;5031448;28;20037;-77
2022/12/14 06:49:20;;;;;;;39.63;24.60;;;-3274.50;86.00;;;;;;5026490;28;20041;-74
2022/12/14 06:51:47;;;;;;;40.55;24.77;;;-3274.50;86.10;;;;;;5034284;28;20112;-75
2022/12/14 06:54:16;;;;;;;45.15;27.50;;;-3274.50;86.20;;;;;;5028718;28;20049;-73
2022/12/14 06:56:43;;;;;;;41.17;26.08;;;-3274.50;86.30;;;;;;5028833;28;20035;-74
2022/12/14 06:59:22;;;;;;;;;;;;;;;;;;;;;
2022/12/14 07:01:48;;;;;;;47.30;27.02;;;-3274.40;86.50;;;;;;5028953;28;20033;-75
2022/12/14 07:04:16;;;;;;;42.47;26.38;;;-3274.40;86.60;;;;;;5027467;28;20044;-75
2022/12/14 07:06:41;;;;;;;44.00;27.63;;;-3274.40;86.70;;;;;;5030040;28;20506;-74
2022/12/14 07:09:12;;;;;;;47.08;28.90;;;-3274.40;86.70;;;;;;5029115;28;20316;-77
2022/12/14 07:11:37;;;;;;;45.90;27.77;;;-3274.40;86.80;;;;;;5041421;28;20030;-74
2022/12/14 07:14:06;;;;;;;46.08;27.38;;;-3274.40;86.90;;;;;;5033922;28;20101;-76
2022/12/14 07:16:36;;;;;;;54.33;30.92;;;-3274.40;86.90;;;;;;5035337;28;20038;-76
2022/12/14 07:19:06;;;;;;;45.65;27.77;;;-3274.50;86.90;;;;;;5026618;28;20553;-78
2022/12/14 07:21:34;;;;;;;43.47;27.00;;;-3274.40;86.70;;;;;;5030074;28;20518;-74
2022/12/14 07:24:00;;;;;;;47.30;28.60;;;-3274.40;86.70;;;;;;5030472;28;20057;-74
2022/12/14 07:26:27;;;;;;;48.13;30.60;;;-3274.40;86.80;;;;;;5031385;28;20033;-76
2022/12/14 07:28:53;;;;;;;47.50;28.35;;;-3274.40;86.90;;;;;;5027076;28;20057;-74
2022/12/14 07:31:21;;;;;;;46.65;29.17;;;-3274.40;86.90;;;;;;5032452;28;20048;-76
2022/12/14 07:33:50;;;;;;;48.78;30.00;;;-3274.40;86.70;;;;;;5029387;28;20052;-77
2022/12/14 07:36:18;;;;;;;47.33;29.77;;;-3274.40;86.80;;;;;;5030956;28;20033;-76
2022/12/14 07:38:48;;;;;;;43.60;27.45;;;-3274.40;86.80;;;;;;5032631;28;20033;-74
2022/12/14 07:41:41;;;;;;;42.05;26.27;;;-3274.40;86.70;;;;;;5033983;28;20033;-76
2022/12/14 07:44:08;;;;;;;51.08;30.50;;;-3274.40;86.80;;;;;;5028873;28;20401;-74
2022/12/14 07:46:39;;;;;;;55.70;31.67;;;-3274.40;86.70;;;;;;5025081;28;20024;-75
2022/12/14 07:49:05;;;;;;;53.63;32.67;;;-3274.30;86.70;;;;;;5026527;28;20056;-78
2022/12/14 07:51:43;;;;;;;54.65;32.53;;;-3274.30;86.80;;;;;;5027677;28;20029;-74
2022/12/14 07:54:13;;;;;;;47.10;28.15;;;-3274.30;86.80;;;;;;5027904;28;20025;-75
2022/12/14 07:56:49;;;;;;;47.92;27.88;;;-3274.30;86.90;;;;;;5026475;28;20044;-73
2022/12/14 07:59:22;;;;;;;45.90;29.63;;;-3274.30;86.90;;;;;;5029853;28;20375;-76
2022/12/14 08:01:51;;;;;;;44.53;28.85;;;-3274.30;86.90;;;;;;5031633;28;20332;-78
2022/12/14 08:04:18;;;;;;;45.67;28.75;;;-3274.30;86.90;;;;;;5033080;28;20774;-76
2022/12/14 08:06:48;;;;;;;52.28;32.28;;;-3274.30;86.90;;;;;;5029397;28;20253;-73
2022/12/14 08:09:14;;;;;;;45.42;28.27;;;-3274.30;87.00;;;;;;5031119;28;20512;-74
2022/12/14 08:11:50;;;;;;;42.92;27.48;;;-3274.30;86.90;;;;;;5038008;28;20535;-74
2022/12/14 08:14:24;;;;;;;44.75;27.27;;;-3274.30;86.90;;;;;;5036348;28;20029;-77
2022/12/14 08:16:52;;;;;;;41.22;27.05;;;-3274.30;86.90;;;;;;5030704;28;20037;-73
2022/12/14 08:19:18;;;;;;;46.88;30.10;;;-3274.30;87.00;;;;;;5031375;28;20490;-73
2022/12/14 08:21:44;;;;;;;43.13;27.55;;;-3274.30;87.10;;;;;;5026402;28;20040;-74
2022/12/14 08:24:15;;;;;;;46.63;28.08;;;-3274.40;87.00;;;;;;5029724;28;20053;-74
2022/12/14 08:26:41;;;;;;;46.08;27.40;;;-3274.30;86.90;;;;;;5027969;28;20040;-75
2022/12/14 08:29:13;;;;;;;46.50;28.25;;;-3274.30;86.80;;;;;;5032773;28;20045;-75
2022/12/14 08:31:41;;;;;;;45.67;27.33;;;-3274.30;86.80;;;;;;5030248;28;20049;-75
2022/12/14 08:34:10;;;;;;;42.65;26.65;;;-3274.30;86.70;;;;;;5036619;28;20037;-76
2022/12/14 08:36:35;;;;;;;46.95;28.55;;;-3274.30;86.80;;;;;;5027428;28;20354;-75
2022/12/14 08:39:06;;;;;;;49.58;28.73;;;-3274.30;86.80;;;;;;5031674;28;20166;-75
2022/12/14 08:41:32;;;;;;;48.45;29.48;;;-3274.40;86.80;;;;;;5029135;28;20474;-75
2022/12/14 08:44:02;;;;;;;44.08;28.77;;;-3274.50;86.70;;;;;;5030005;28;20045;-75
2022/12/14 08:46:30;;;;;;;47.83;28.30;;;-3274.50;86.70;;;;;;5029885;28;20526;-75
2022/12/14 08:48:57;;;;;;;47.03;27.88;;;-3274.50;86.70;;;;;;5029425;28;20503;-75
2022/12/14 08:51:27;;;;;;;48.85;28.27;;;-3274.60;86.90;;;;;;5024935;28;20404;-74
2022/12/14 08:53:53;;;;;;;45.22;28.08;;;-3274.70;86.70;;;;;;5027319;28;20064;-76
2022/12/14 08:56:23;;;;;;;46.25;28.60;;;-3274.80;86.80;;;;;;5025520;28;20037;-76
2022/12/14 08:58:52;;;;;;;43.10;26.75;;;-3274.80;86.40;;;;;;5034283;28;20049;-75
2022/12/14 09:01:20;;;;;;;44.72;27.75;;;-3274.90;86.00;;;;;;5023366;28;20037;-75
2022/12/14 09:03:49;;;;;;;48.22;27.48;;;-3274.90;85.90;;;;;;5036129;28;20037;-73
2022/12/14 09:06:22;;;;;;;46.95;28.35;;;-3275.00;85.80;;;;;;5032838;28;20037;-73
2022/12/14 09:08:51;;;;;;;42.03;26.02;;;-3275.00;85.70;;;;;;5031386;28;20029;-74
2022/12/14 09:11:18;;;;;;;42.50;26.60;;;-3275.00;85.50;;;;;;5026770;28;20128;-73
2022/12/14 09:13:47;;;;;;;44.95;25.42;;;-3275.00;85.10;;;;;;5031695;28;20048;-73
2022/12/14 09:16:17;;;;;;;46.00;27.50;;;-3275.00;85.00;;;;;;5023211;28;20021;-74
2022/12/14 09:18:53;;;;;;;41.70;27.45;;;-3275.00;84.90;;;;;;5028791;28;20509;-73
2022/12/14 09:21:19;;;;;;;41.53;26.00;;;-3275.00;84.70;;;;;;5032176;28;20041;-74
2022/12/14 09:23:47;;;;;;;46.50;27.67;;;-3275.10;84.60;;;;;;5025950;28;20432;-73
2022/12/14 09:26:17;;;;;;;44.28;26.95;;;-3275.20;84.30;;;;;;5033481;28;20053;-73
2022/12/14 09:28:50;;;;;;;44.95;25.88;;;-3275.30;84.20;;;;;;5029468;28;20075;-73
2022/12/14 09:31:20;;;;;;;41.38;26.80;;;-3275.40;83.90;;;;;;5029630;28;20025;-73
2022/12/14 09:33:49;;;;;;;44.42;25.75;;;-3275.50;83.30;;;;;;5032966;28;20470;-73
2022/12/14 09:36:21;;;;;;;46.22;27.63;;;-3275.50;82.70;;;;;;5040750;28;20494;-75
2022/12/14 09:38:48;;;;;;;43.20;27.15;;;-3275.60;82.90;;;;;;5028569;28;20132;-74
2022/12/14 09:41:35;;;;;;;44.15;27.10;;;-3275.70;82.60;;;;;;5029128;28;20068;-74
2022/12/14 09:44:09;;;;;;;45.97;25.92;;;-3275.80;82.00;;;;;;5027855;28;20033;-75
2022/12/14 09:46:54;;;;;;;44.33;27.63;;;-3275.80;81.40;;;;;;5033307;28;20045;-73
2022/12/14 09:49:34;;;;;;;44.15;26.75;;;-3275.90;81.60;;;;;;5033603;28;20059;-74
2022/12/14 09:52:03;;;;;;;43.15;26.33;;;-3276.10;80.80;;;;;;5030129;28;20107;-74
2022/12/14 09:54:42;;;;;;;50.65;26.38;;;-3276.10;80.10;;;;;;5025778;28;20044;-74
2022/12/14 09:57:33;;;;;;;42.33;27.08;;;-3276.10;80.50;;;;;;5029851;28;20100;-74
2022/12/14 09:59:59;;;;;;;45.95;26.58;;;-3276.30;80.10;;;;;;5034198;28;20257;-74
2022/12/14 10:03:00;;;;;;;41.08;27.15;;;-3276.40;79.90;;;;;;5041207;28;20106;-74
2022/12/14 10:05:38;;;;;;;43.63;26.63;;;-3276.30;78.60;;;;;;5020133;28;20258;-74
2022/12/14 10:08:33;;;;;;;42.88;26.38;;;-3276.20;79.00;;;;;;5028976;28;20042;-72
2022/12/14 10:11:17;;;;;;;44.17;27.67;;;-3276.40;79.30;;;;;;5013812;28;20537;-73
2022/12/14 10:14:29;;;;;;;42.58;28.75;;;-3276.50;78.70;;;;;;5033362;28;20511;-73
2022/12/14 10:17:00;;;;;;;43.50;26.27;;;-3276.70;78.50;;;;;;5036189;28;20057;-73
2022/12/14 10:19:35;;;;;;;47.10;26.98;;;0.00;77.70;;;;;;5037432;28;20401;-72
2022/12/14 10:22:19;;;;;;;48.92;25.98;;;-3276.70;77.40;;;;;;5032263;28;20170;-73
2022/12/14 10:24:59;;;;;;;43.63;27.67;;;-3276.70;77.60;;;;;;5035272;28;20615;-72
2022/12/14 10:27:28;;;;;;;38.33;24.98;;;0.00;77.40;;;;;;5038742;28;20032;-73
2022/12/14 10:30:03;;;;;;;39.05;24.98;;;0.00;76.10;;;;;;5046611;28;20053;-72
2022/12/14 10:32:43;;;;;;;38.15;24.50;;;0.00;76.60;;;;;;5013802;28;20037;-74
2022/12/14 10:35:17;;;;;;;42.20;24.17;;;0.00;76.00;;;;;;5036685;28;20117;-73
2022/12/14 10:38:16;;;;;;;38.30;24.92;;;0.00;75.80;;;;;;5026641;28;20040;-73
2022/12/14 10:40:52;;;;;;;39.70;25.20;;;0.00;76.80;;;;;;5036681;28;20489;-73
2022/12/14 10:43:36;;;;;;;39.88;23.95;;;0.00;76.50;;;;;;5038001;28;20034;-72
2022/12/14 10:46:06;;;;;;;40.93;24.67;;;0.00;76.10;;;;;;5027343;28;20048;-73
2022/12/14 10:48:37;;;;;;;43.47;26.45;;;0.10;75.80;;;;;;5023119;28;20350;-73
2022/12/14 10:51:26;;;;;;;38.30;23.63;;;0.10;76.10;;;;;;5028359;28;20052;-73
2022/12/14 10:54:25;;;;;;;40.30;24.25;;;0.10;75.50;;;;;;5036915;28;20067;-73
2022/12/14 10:56:53;;;;;;;36.42;24.13;;;0.20;76.00;;;;;;5026298;28;20391;-73
2022/12/14 10:59:25;;;;;;;39.95;25.45;;;0.20;75.70;;;;;;5037240;28;20088;-73
2022/12/14 11:02:04;;;;;;;40.38;25.58;;;0.30;75.90;;;;;;5026107;28;20041;-74
2022/12/14 11:04:39;;;;;;;38.85;26.15;;;0.20;76.50;;;;;;5034756;28;20037;-74
2022/12/14 11:07:08;;;;;;;36.72;25.02;;;0.20;75.90;;;;;;5031622;28;20040;-73
2022/12/14 11:09:37;;;;;;;36.25;24.80;;;0.30;76.80;;;;;;5033605;28;20045;-73
2022/12/14 11:12:24;;;;;;;38.72;24.85;;;0.30;76.40;;;;;;5035219;28;20021;-74
2022/12/14 11:14:55;;;;;;;43.13;24.02;;;0.30;77.20;;;;;;5035973;28;20104;-74
2022/12/14 11:17:34;;;;;;;40.78;25.35;;;0.50;76.80;;;;;;5025089;28;20037;-73
2022/12/14 11:20:21;;;;;;;37.53;24.83;;;0.50;76.60;;;;;;5041820;28;20220;-73
2022/12/14 11:22:57;;;;;;;37.40;23.05;;;0.40;76.60;;;;;;5026696;28;20532;-73
2022/12/14 11:25:50;;;;;;;36.28;24.20;;;0.30;77.10;;;;;;5031616;28;20033;-74
2022/12/14 11:28:48;;;;;;;39.42;24.42;;;0.30;77.10;;;;;;5036257;28;20517;-72
2022/12/14 11:31:22;;;;;;;37.20;24.30;;;0.40;77.70;;;;;;5053352;28;20083;-74
2022/12/14 11:33:58;;;;;;;39.38;23.85;;;0.40;77.30;;;;;;5042399;28;20037;-73
2022/12/14 11:36:37;;;;;;;36.25;23.65;;;0.40;77.50;;;;;;5042132;28;20121;-74
2022/12/14 11:39:19;;;;;;;39.60;25.58;;;0.40;77.70;;;;;;5036549;28;20048;-74
2022/12/14 11:41:52;;;;;;;36.47;23.00;;;0.50;78.10;;;;;;5033302;28;20063;-75
2022/12/14 11:44:27;;;;;;;41.13;26.33;;;0.40;77.30;;;;;;5044088;28;20533;-74
2022/12/14 11:47:01;;;;;;;42.63;25.20;;;0.40;77.20;;;;;;5031214;28;20087;-78
2022/12/14 11:49:38;;;;;;;38.35;24.98;;;0.30;76.50;;;;;;5032909;28;20057;-77
2022/12/14 11:52:14;;;;;;;37.30;22.85;;;0.40;76.80;;;;;;5032503;28;20500;-76
2022/12/14 11:55:11;;;;;;;35.50;24.45;;;0.50;76.70;;;;;;5032872;28;20044;-76
2022/12/14 11:57:53;;;;;;;38.42;25.55;;;0.50;76.50;;;;;;5019124;28;20508;-76
2022/12/14 12:00:20;;;;;;;42.40;24.33;;;0.60;76.60;;;;;;5012871;28;20041;-76
2022/12/14 12:02:58;;;;;;;43.88;26.85;;;0.60;76.40;;;;;;5032865;28;20040;-76
2022/12/14 12:05:28;;;;;;;36.50;25.13;;;0.80;75.80;;;;;;5029547;28;20026;-76
2022/12/14 12:07:58;;;;;;;35.75;23.45;;;0.60;75.60;;;;;;5042043;28;20029;-75
2022/12/14 12:10:39;;;;;;;36.35;23.38;;;0.50;75.60;;;;;;5034382;28;20068;-75
2022/12/14 12:13:16;;;;;;;33.00;23.17;;;0.60;75.70;;;;;;5032705;28;20056;-75
2022/12/14 12:15:52;;;;;;;35.85;24.45;;;0.50;75.80;;;;;;5044615;28;20482;-76
2022/12/14 12:18:27;;;;;;;36.25;22.30;;;0.50;76.20;;;;;;5031412;28;20045;-76
2022/12/14 12:21:07;;;;;;;39.05;24.13;;;0.50;76.00;;;;;;5031045;28;20041;-75
2022/12/14 12:24:06;;;;;;;36.90;23.13;;;0.50;75.90;;;;;;5036546;28;20076;-76
2022/12/14 12:26:43;;;;;;;32.28;22.52;;;0.50;75.80;;;;;;5031285;28;20084;-77
2022/12/14 12:29:30;;;;;;;36.13;23.52;;;0.60;75.60;;;;;;5031940;28;20037;-76
2022/12/14 12:32:30;;;;;;;35.78;22.48;;;0.70;75.50;;;;;;5033635;28;20381;-76
2022/12/14 12:35:19;;;;;;;38.78;22.20;;;0.60;75.70;;;;;;5026855;28;20033;-75
2022/12/14 12:37:49;;;;;;;36.20;23.55;;;0.50;75.90;;;;;;5034358;28;20515;-76
2022/12/14 12:40:47;;;;;;;33.50;22.85;;;0.60;76.20;;;;;;5029928;28;20030;-75
2022/12/14 12:43:33;;;;;;;33.97;21.80;;;0.50;75.70;;;;;;5027312;28;20095;-76
2022/12/14 12:46:10;;;;;;;32.35;21.27;;;0.50;76.10;;;;;;5026107;28;20037;-78
2022/12/14 12:48:44;;;;;;;33.38;21.48;;;0.50;76.30;;;;;;5035758;28;20329;-79
2022/12/14 12:51:24;;;;;;;31.33;21.48;;;0.60;76.20;;;;;;5026406;28;20049;-78
2022/12/14 12:54:16;;;;;;;30.92;20.92;;;0.60;75.70;;;;;;5030442;28;20541;-80
2022/12/14 12:56:55;;;;;;;35.15;22.25;;;0.60;75.60;;;;;;5026629;28;20037;-79
2022/12/14 12:59:51;;;;;;;35.53;21.80;;;0.50;75.90;;;;;;5010961;28;20277;-77